sensor_id;sensor_type;location;lat;lon;timestamp;temperature;humidity
10143;DHT22;5112;54.088;13.446;2022-08-19T00:04:55;20.90;99.90
10143;DHT22;5112;54.088;13.446;2022-08-19T00:14:58;20.70;99.90
10143;DHT22;5112;54.088;13.446;2022-08-19T00:25:00;20.90;99.90
10143;DHT22;5112;54.088;13.446;2022-08-19T00:35:04;20.70;99.90
10143;DHT22;5112;54.088;13.446;2022-08-19T00:45:12;20.50;99.90
10143;DHT22;5112;54.088;13.446;2022-08-19T00:55:19;20.40;99.90
10143;DHT22;5112;54.088;13.446;2022-08-19T01:05:25;20.30;99.90
10143;DHT22;5112;54.088;13.446;2022-08-19T01:15:32;20.20;99.90
10143;DHT22;5112;54.088;13.446;2022-08-19T01:25:41;20.20;99.90
10143;DHT22;5112;54.088;13.446;2022-08-19T01:35:43;20.10;99.90
10143;DHT22;5112;54.088;13.446;2022-08-19T01:45:46;20.10;99.90
10143;DHT22;5112;54.088;13.446;2022-08-19T01:55:48;20.10;99.90
10143;DHT22;5112;54.088;13.446;2022-08-19T02:05:56;20.00;99.90
10143;DHT22;5112;54.088;13.446;2022-08-19T02:15:57;20.20;99.90
10143;DHT22;5112;54.088;13.446;2022-08-19T02:26:00;20.10;99.90
10143;DHT22;5112;54.088;13.446;2022-08-19T02:36:03;20.10;99.90
10143;DHT22;5112;54.088;13.446;2022-08-19T02:46:14;20.00;99.90
10143;DHT22;5112;54.088;13.446;2022-08-19T02:56:21;20.00;99.90
10143;DHT22;5112;54.088;13.446;2022-08-19T03:06:24;20.20;99.90
10143;DHT22;5112;54.088;13.446;2022-08-19T03:16:27;20.20;99.90
10143;DHT22;5112;54.088;13.446;2022-08-19T03:26:32;20.10;99.90
10143;DHT22;5112;54.088;13.446;2022-08-19T03:36:34;20.10;99.90
10143;DHT22;5112;54.088;13.446;2022-08-19T03:46:38;20.10;99.90
10143;DHT22;5112;54.088;13.446;2022-08-19T03:56:41;20.20;99.90
10143;DHT22;5112;54.088;13.446;2022-08-19T04:06:45;20.30;99.90
10143;DHT22;5112;54.088;13.446;2022-08-19T04:16:48;20.00;99.90
10143;DHT22;5112;54.088;13.446;2022-08-19T04:26:51;19.70;99.90
10143;DHT22;5112;54.088;13.446;2022-08-19T04:36:56;19.70;99.90
10143;DHT22;5112;54.088;13.446;2022-08-19T04:46:59;19.80;99.90
10143;DHT22;5112;54.088;13.446;2022-08-19T04:57:01;19.80;99.90
10143;DHT22;5112;54.088;13.446;2022-08-19T05:07:05;19.70;99.90
10143;DHT22;5112;54.088;13.446;2022-08-19T05:17:07;19.70;99.90
10143;DHT22;5112;54.088;13.446;2022-08-19T05:27:10;19.70;99.90
10143;DHT22;5112;54.088;13.446;2022-08-19T05:37:12;19.60;99.90
10143;DHT22;5112;54.088;13.446;2022-08-19T05:47:15;19.60;99.90
10143;DHT22;5112;54.088;13.446;2022-08-19T05:57:19;19.60;99.90
10143;DHT22;5112;54.088;13.446;2022-08-19T06:07:22;19.60;99.90
10143;DHT22;5112;54.088;13.446;2022-08-19T06:17:24;19.60;99.90
10143;DHT22;5112;54.088;13.446;2022-08-19T06:27:27;19.60;99.90
10143;DHT22;5112;54.088;13.446;2022-08-19T06:37:31;19.70;99.90
10143;DHT22;5112;54.088;13.446;2022-08-19T06:47:34;19.80;99.90
10143;DHT22;5112;54.088;13.446;2022-08-19T06:57:36;20.00;99.90
10143;DHT22;5112;54.088;13.446;2022-08-19T07:07:40;19.90;99.90
10143;DHT22;5112;54.088;13.446;2022-08-19T07:17:44;19.90;99.90
10143;DHT22;5112;54.088;13.446;2022-08-19T07:27:48;20.00;99.90
10143;DHT22;5112;54.088;13.446;2022-08-19T07:37:50;20.00;99.90
10143;DHT22;5112;54.088;13.446;2022-08-19T07:47:54;19.90;99.90
10143;DHT22;5112;54.088;13.446;2022-08-19T07:57:56;19.90;99.90
10143;DHT22;5112;54.088;13.446;2022-08-19T08:07:59;19.80;99.90
10143;DHT22;5112;54.088;13.446;2022-08-19T08:18:18;19.90;99.90
10143;DHT22;5112;54.088;13.446;2022-08-19T08:28:22;20.00;99.90
10143;DHT22;5112;54.088;13.446;2022-08-19T08:38:24;19.80;99.90
10143;DHT22;5112;54.088;13.446;2022-08-19T08:48:35;19.90;99.90
10143;DHT22;5112;54.088;13.446;2022-08-19T08:58:46;20.00;99.90
10143;DHT22;5112;54.088;13.446;2022-08-19T09:08:59;20.30;99.90
10143;DHT22;5112;54.088;13.446;2022-08-19T09:19:06;20.50;99.90
10143;DHT22;5112;54.088;13.446;2022-08-19T09:29:15;20.70;99.90
10143;DHT22;5112;54.088;13.446;2022-08-19T09:39:17;21.10;99.90
10143;DHT22;5112;54.088;13.446;2022-08-19T09:49:20;21.20;99.90
10143;DHT22;5112;54.088;13.446;2022-08-19T09:59:23;21.40;99.90
10143;DHT22;5112;54.088;13.446;2022-08-19T10:09:26;21.50;99.90
10143;DHT22;5112;54.088;13.446;2022-08-19T10:19:27;21.60;99.90
10143;DHT22;5112;54.088;13.446;2022-08-19T10:29:32;21.60;99.90
10143;DHT22;5112;54.088;13.446;2022-08-19T10:39:35;21.60;99.90
10143;DHT22;5112;54.088;13.446;2022-08-19T10:49:38;21.50;99.90
10143;DHT22;5112;54.088;13.446;2022-08-19T10:59:55;21.40;99.90
10143;DHT22;5112;54.088;13.446;2022-08-19T11:09:58;21.40;99.90
10143;DHT22;5112;54.088;13.446;2022-08-19T11:20:00;21.40;99.90
10143;DHT22;5112;54.088;13.446;2022-08-19T11:30:08;21.30;99.90
10143;DHT22;5112;54.088;13.446;2022-08-19T11:40:11;21.40;99.90
10143;DHT22;5112;54.088;13.446;2022-08-19T11:50:14;21.60;99.90
10143;DHT22;5112;54.088;13.446;2022-08-19T12:00:18;21.70;99.90
10143;DHT22;5112;54.088;13.446;2022-08-19T12:10:21;21.70;99.90
10143;DHT22;5112;54.088;13.446;2022-08-19T12:20:23;21.40;99.90
10143;DHT22;5112;54.088;13.446;2022-08-19T12:30:28;20.90;99.90
10143;DHT22;5112;54.088;13.446;2022-08-19T12:40:29;21.30;99.90
10143;DHT22;5112;54.088;13.446;2022-08-19T12:50:32;21.50;99.90
10143;DHT22;5112;54.088;13.446;2022-08-19T13:00:34;21.30;99.90
10143;DHT22;5112;54.088;13.446;2022-08-19T13:10:37;21.30;99.90
10143;DHT22;5112;54.088;13.446;2022-08-19T13:20:40;21.40;99.90
10143;DHT22;5112;54.088;13.446;2022-08-19T13:30:46;21.00;99.90
10143;DHT22;5112;54.088;13.446;2022-08-19T13:41:06;21.20;99.90
10143;DHT22;5112;54.088;13.446;2022-08-19T13:51:09;21.20;99.90
10143;DHT22;5112;54.088;13.446;2022-08-19T14:01:11;21.20;99.90
10143;DHT22;5112;54.088;13.446;2022-08-19T14:11:14;21.00;99.90
10143;DHT22;5112;54.088;13.446;2022-08-19T14:21:20;20.90;99.90
10143;DHT22;5112;54.088;13.446;2022-08-19T14:31:25;20.90;99.90
10143;DHT22;5112;54.088;13.446;2022-08-19T14:41:27;21.00;99.90
10143;DHT22;5112;54.088;13.446;2022-08-19T14:51:31;21.00;99.90
10143;DHT22;5112;54.088;13.446;2022-08-19T15:01:32;20.90;99.90
10143;DHT22;5112;54.088;13.446;2022-08-19T15:11:36;20.80;99.90
10143;DHT22;5112;54.088;13.446;2022-08-19T15:21:38;21.00;99.90
10143;DHT22;5112;54.088;13.446;2022-08-19T15:31:42;21.00;99.90
10143;DHT22;5112;54.088;13.446;2022-08-19T15:41:44;21.20;99.90
10143;DHT22;5112;54.088;13.446;2022-08-19T15:51:48;21.50;99.90
10143;DHT22;5112;54.088;13.446;2022-08-19T16:01:51;21.70;99.90
10143;DHT22;5112;54.088;13.446;2022-08-19T16:12:11;21.70;99.90
10143;DHT22;5112;54.088;13.446;2022-08-19T16:22:13;21.60;99.90
10143;DHT22;5112;54.088;13.446;2022-08-19T16:32:17;21.70;99.90
10143;DHT22;5112;54.088;13.446;2022-08-19T16:42:19;21.60;99.90
10143;DHT22;5112;54.088;13.446;2022-08-19T16:52:22;21.60;99.90
10143;DHT22;5112;54.088;13.446;2022-08-19T17:02:25;21.60;99.90
10143;DHT22;5112;54.088;13.446;2022-08-19T17:12:28;21.50;99.90
10143;DHT22;5112;54.088;13.446;2022-08-19T17:22:31;21.40;99.90
10143;DHT22;5112;54.088;13.446;2022-08-19T17:32:36;21.30;99.90
10143;DHT22;5112;54.088;13.446;2022-08-19T17:42:38;21.20;99.90
10143;DHT22;5112;54.088;13.446;2022-08-19T17:52:42;21.20;99.90
10143;DHT22;5112;54.088;13.446;2022-08-19T18:02:46;21.20;99.90
10143;DHT22;5112;54.088;13.446;2022-08-19T18:12:49;21.10;99.90
10143;DHT22;5112;54.088;13.446;2022-08-19T18:22:51;21.10;99.90
10143;DHT22;5112;54.088;13.446;2022-08-19T18:32:54;21.10;99.90
10143;DHT22;5112;54.088;13.446;2022-08-19T18:42:56;21.20;99.90
10143;DHT22;5112;54.088;13.446;2022-08-19T18:53:17;21.00;99.90
10143;DHT22;5112;54.088;13.446;2022-08-19T19:03:18;20.90;99.90
10143;DHT22;5112;54.088;13.446;2022-08-19T19:13:21;20.90;99.90
10143;DHT22;5112;54.088;13.446;2022-08-19T19:23:24;20.90;99.90
10143;DHT22;5112;54.088;13.446;2022-08-19T19:33:27;20.90;99.90
10143;DHT22;5112;54.088;13.446;2022-08-19T19:43:29;21.00;99.90
10143;DHT22;5112;54.088;13.446;2022-08-19T19:53:33;20.80;99.90
10143;DHT22;5112;54.088;13.446;2022-08-19T20:03:35;20.60;99.90
10143;DHT22;5112;54.088;13.446;2022-08-19T20:13:38;20.50;99.90
10143;DHT22;5112;54.088;13.446;2022-08-19T20:23:40;20.50;99.90
10143;DHT22;5112;54.088;13.446;2022-08-19T20:33:43;20.40;99.90
10143;DHT22;5112;54.088;13.446;2022-08-19T20:43:45;20.50;99.90
10143;DHT22;5112;54.088;13.446;2022-08-19T20:53:48;20.30;99.90
10143;DHT22;5112;54.088;13.446;2022-08-19T21:03:49;20.40;99.90
10143;DHT22;5112;54.088;13.446;2022-08-19T21:13:53;20.50;99.90
10143;DHT22;5112;54.088;13.446;2022-08-19T21:23:54;20.40;99.90
10143;DHT22;5112;54.088;13.446;2022-08-19T21:33:58;20.40;99.90
10143;DHT22;5112;54.088;13.446;2022-08-19T21:44:00;20.20;99.90
10143;DHT22;5112;54.088;13.446;2022-08-19T21:54:03;20.40;99.90
10143;DHT22;5112;54.088;13.446;2022-08-19T22:04:04;20.20;99.90
10143;DHT22;5112;54.088;13.446;2022-08-19T22:14:07;20.30;99.90
10143;DHT22;5112;54.088;13.446;2022-08-19T22:24:09;20.20;99.90
10143;DHT22;5112;54.088;13.446;2022-08-19T22:34:12;20.20;99.90
10143;DHT22;5112;54.088;13.446;2022-08-19T22:44:14;20.20;99.90
10143;DHT22;5112;54.088;13.446;2022-08-19T22:54:18;20.40;99.90
10143;DHT22;5112;54.088;13.446;2022-08-19T23:04:20;20.10;99.90
10143;DHT22;5112;54.088;13.446;2022-08-19T23:14:23;20.20;99.90
10143;DHT22;5112;54.088;13.446;2022-08-19T23:24:25;20.10;99.90
10143;DHT22;5112;54.088;13.446;2022-08-19T23:34:28;20.30;99.90
10143;DHT22;5112;54.088;13.446;2022-08-19T23:44:30;20.30;99.90
10143;DHT22;5112;54.088;13.446;2022-08-19T23:54:33;20.00;99.90
